Sant Just Desvern, Spain
Current Conditions -  °F | °C
As of 6:30 AM on Thursday 27 Nov 2014 (Local Time) from LEBL Reporting Station
Few Clouds Few Clouds  
Wind Chill: 52°   Ceiling: Unl
Heat Index: 52°   Visibility: 6mi
Dew Point: 50°   Wind: 8mph
Humidity: 94%   Direction: 330°NNW
Pressure: 29.77"   Gusts: NA
Location:  41.39°N, 2.08°E
Report Text: LEBL 270530Z 33007KT 9999 FEW020 11/10 Q1008 NOSIG
Loading
Personal Weather Stations






























Interactive Weather Map New forecast layout! Learn more

10-Day Weather Forecast

Advertisements
Track Severe Weather on mobile